Decoded Metar for YLIS ( in ) (IATA:) | Meteo·Mobile Aviation Weather
aviador You're here:

YLIS Decoded Metar

in
Report Time2019-03-21 22:00:00
UTC Time2019-03-21 22:33:11
Flight Rules vfr VFR
WindCalm
Visibility9999 m
Phenomena:N/A
Clouds:Scattered 021 Hf
Scattered 031 Hf
Expected CloudBase > 800 ft AGL from Temp-Dew spread
CeilingNone
Temp23°C
Dew Point21°C (89% RH)
QNH1017 hPa
Raw Report
METAR YLIS 212200Z AUTO 00000KT 9999 // SCT021 SCT031 23/21 Q1017=

Extra information for YLIS:More info

Social comments